Time;durP1;ratioP1;P1;durP2;ratioP2;P2;SDS_P1;SDS_P2;PMS_P1;PMS_P2;Temp;Humidity;BMP_temperature;BMP_pressure;BME280_temperature;BME280_humidity;BME280_pressure;Samples;Min_cycle;Max_cycle;Signal;HPM_P1;HPM_P2
2021/10/15 00:00:16;;;;;;;33.83;21.10;;;6.30;90.50;;;;;;5072917;28;20024;-65
2021/10/15 00:02:42;;;;;;;32.67;19.63;;;6.30;90.60;;;;;;5072569;28;20020;-67
2021/10/15 00:05:09;;;;;;;33.30;20.50;;;6.20;90.70;;;;;;5072237;28;20068;-66
2021/10/15 00:07:34;;;;;;;31.88;20.92;;;6.30;90.80;;;;;;5054633;28;20060;-65
2021/10/15 00:10:00;;;;;;;30.63;20.15;;;6.20;90.90;;;;;;5054340;28;20033;-65
2021/10/15 00:12:26;;;;;;;31.75;21.42;;;6.20;90.90;;;;;;5072696;28;20029;-65
2021/10/15 00:14:51;;;;;;;32.28;21.00;;;6.20;90.90;;;;;;5053945;28;20056;-65
2021/10/15 00:17:17;;;;;;;32.97;20.60;;;6.20;90.90;;;;;;5074300;28;20032;-65
2021/10/15 00:19:43;;;;;;;29.98;20.33;;;6.20;91.00;;;;;;5058051;28;20025;-64
2021/10/15 00:22:09;;;;;;;28.75;20.05;;;6.20;91.10;;;;;;5076016;28;20059;-65
2021/10/15 00:24:35;;;;;;;28.30;20.35;;;6.10;91.20;;;;;;5058248;28;20058;-67
2021/10/15 00:27:01;;;;;;;32.78;19.90;;;6.10;91.20;;;;;;5057921;28;20078;-67
2021/10/15 00:29:27;;;;;;;27.20;19.50;;;6.10;91.30;;;;;;5075908;28;20060;-65
2021/10/15 00:31:53;;;;;;;28.98;19.75;;;6.10;91.30;;;;;;5057643;28;20433;-65
2021/10/15 00:34:19;;;;;;;29.00;19.17;;;6.10;91.30;;;;;;5075697;28;20024;-66
2021/10/15 00:36:45;;;;;;;30.35;20.42;;;6.10;91.40;;;;;;5075713;28;20082;-64
2021/10/15 00:39:11;;;;;;;28.25;19.58;;;6.10;91.60;;;;;;5076045;28;20069;-65
2021/10/15 00:41:37;;;;;;;28.35;19.85;;;6.00;91.60;;;;;;5075749;28;20032;-65
2021/10/15 00:44:05;;;;;;;27.77;19.85;;;6.00;91.70;;;;;;5075755;28;20029;-64
2021/10/15 00:46:32;;;;;;;29.13;19.92;;;6.00;91.80;;;;;;5075162;28;20029;-65
2021/10/15 00:48:57;;;;;;;29.30;20.88;;;5.90;91.90;;;;;;5057021;28;20505;-66
2021/10/15 00:51:24;;;;;;;28.05;19.60;;;5.90;92.10;;;;;;5075650;28;20037;-64
2021/10/15 00:53:50;;;;;;;29.85;20.50;;;5.90;92.20;;;;;;5075544;28;20021;-65
2021/10/15 00:56:16;;;;;;;31.98;21.15;;;5.90;92.50;;;;;;5075873;28;20095;-65
2021/10/15 00:58:42;;;;;;;31.40;21.73;;;5.90;92.60;;;;;;5073715;28;20071;-66
2021/10/15 01:01:08;;;;;;;31.33;21.63;;;5.90;92.70;;;;;;5057418;28;20455;-65
2021/10/15 01:03:34;;;;;;;32.28;23.15;;;5.90;92.70;;;;;;5075988;28;20040;-65
2021/10/15 01:06:01;;;;;;;38.25;25.27;;;5.80;92.50;;;;;;5074922;28;20078;-65
2021/10/15 01:08:27;;;;;;;39.45;30.92;;;5.80;92.60;;;;;;5055557;28;20044;-65
2021/10/15 01:10:54;;;;;;;37.38;25.48;;;5.70;92.80;;;;;;5057373;28;20032;-66
2021/10/15 01:13:20;;;;;;;37.58;28.23;;;5.60;92.80;;;;;;5075020;28;20028;-66
2021/10/15 01:15:46;;;;;;;40.25;30.80;;;5.60;93.00;;;;;;5067338;28;20029;-65
2021/10/15 01:18:13;;;;;;;37.65;28.75;;;5.50;92.90;;;;;;5056485;28;20029;-65
2021/10/15 01:20:40;;;;;;;41.42;30.35;;;5.50;93.10;;;;;;5074964;28;20029;-65
2021/10/15 01:23:06;;;;;;;39.25;28.13;;;5.50;93.20;;;;;;5074770;28;20020;-65
2021/10/15 01:25:36;;;;;;;42.90;30.40;;;5.40;93.10;;;;;;5056753;28;20530;-66
2021/10/15 01:28:02;;;;;;;42.75;30.58;;;5.40;93.20;;;;;;5056377;28;20029;-65
2021/10/15 01:30:29;;;;;;;34.92;26.73;;;5.30;93.30;;;;;;5074438;28;20077;-65
2021/10/15 01:32:54;;;;;;;38.72;28.95;;;5.30;93.70;;;;;;5057899;28;20024;-65
2021/10/15 01:35:20;;;;;;;36.78;28.02;;;5.30;94.00;;;;;;5074587;28;20016;-65
2021/10/15 01:37:46;;;;;;;39.65;28.80;;;5.30;94.20;;;;;;5074805;28;20032;-65
2021/10/15 01:40:12;;;;;;;39.67;30.65;;;5.20;94.20;;;;;;5074204;28;20031;-66
2021/10/15 01:42:56;;;;;;;35.33;26.67;;;5.20;94.00;;;;;;5073705;28;20022;-65
2021/10/15 01:45:27;;;;;;;39.65;29.55;;;5.20;94.00;;;;;;5074364;28;20025;-65
2021/10/15 01:47:54;;;;;;;38.50;28.67;;;5.10;94.00;;;;;;5056565;28;20075;-65
2021/10/15 01:50:22;;;;;;;58.10;48.03;;;5.10;93.90;;;;;;5074219;28;20037;-67
2021/10/15 01:52:49;;;;;;;295.25;213.35;;;5.10;94.00;;;;;;5056216;28;20025;-66
2021/10/15 01:55:15;;;;;;;187.88;147.82;;;5.10;93.90;;;;;;5055847;28;20074;-66
2021/10/15 01:57:40;;;;;;;169.02;127.68;;;5.00;93.90;;;;;;5074078;28;20029;-67
2021/10/15 02:00:08;;;;;;;237.32;122.38;;;5.00;94.20;;;;;;5073989;28;20371;-66
2021/10/15 02:02:35;;;;;;;43.58;29.67;;;5.00;93.90;;;;;;5075283;28;20188;-66
2021/10/15 02:05:01;;;;;;;43.05;30.58;;;4.90;94.60;;;;;;5053799;28;20040;-68
2021/10/15 02:07:27;;;;;;;44.13;30.13;;;4.90;95.20;;;;;;5064407;28;20094;-65
2021/10/15 02:09:52;;;;;;;44.58;30.08;;;4.80;96.00;;;;;;5074544;28;20029;-66
2021/10/15 02:12:18;;;;;;;53.53;34.42;;;4.80;96.60;;;;;;5073600;28;20039;-66
2021/10/15 02:14:44;;;;;;;56.88;33.40;;;4.80;96.30;;;;;;5056242;28;20027;-65
2021/10/15 02:17:10;;;;;;;46.35;29.15;;;4.80;96.00;;;;;;5055492;28;20055;-66
2021/10/15 02:19:36;;;;;;;40.33;26.65;;;4.80;95.50;;;;;;5055844;28;20107;-66
2021/10/15 02:22:02;;;;;;;37.45;25.75;;;4.80;94.90;;;;;;5055748;28;20134;-68
2021/10/15 02:24:28;;;;;;;43.17;28.55;;;4.70;95.20;;;;;;5055775;28;20039;-66
2021/10/15 02:26:53;;;;;;;58.42;34.88;;;4.70;95.80;;;;;;5073900;28;20028;-67
2021/10/15 02:29:19;;;;;;;40.20;27.80;;;4.80;96.10;;;;;;5076169;28;20032;-66
2021/10/15 02:31:45;;;;;;;38.67;27.00;;;4.80;96.10;;;;;;5094469;28;20031;-65
2021/10/15 02:34:11;;;;;;;38.58;26.10;;;4.80;96.30;;;;;;5076222;28;20436;-66
2021/10/15 02:36:37;;;;;;;38.10;26.40;;;4.90;96.10;;;;;;5076293;28;20386;-66
2021/10/15 02:39:04;;;;;;;33.75;24.85;;;4.90;96.10;;;;;;5086771;28;20048;-65
2021/10/15 02:41:29;;;;;;;36.60;26.25;;;4.90;96.00;;;;;;5073317;28;20037;-67
2021/10/15 02:43:55;;;;;;;37.83;26.25;;;4.90;96.00;;;;;;5073410;28;20347;-67
2021/10/15 02:46:21;;;;;;;35.78;25.27;;;4.90;95.80;;;;;;5073191;28;20463;-68
2021/10/15 02:48:47;;;;;;;34.63;25.58;;;4.90;96.00;;;;;;5073232;28;20389;-68
2021/10/15 02:51:12;;;;;;;34.75;25.20;;;4.90;96.10;;;;;;5073069;28;20024;-66
2021/10/15 02:53:38;;;;;;;34.47;25.17;;;4.90;96.30;;;;;;5055071;28;20048;-67
2021/10/15 02:56:08;;;;;;;37.40;26.83;;;4.90;96.30;;;;;;5055120;28;20564;-65
2021/10/15 02:58:34;;;;;;;34.60;25.48;;;4.90;96.50;;;;;;5073272;28;20443;-66
2021/10/15 03:00:59;;;;;;;37.97;27.67;;;4.90;96.40;;;;;;5072875;28;20103;-66
2021/10/15 03:03:25;;;;;;;46.70;30.88;;;4.90;96.60;;;;;;5072999;28;20116;-66
2021/10/15 03:05:51;;;;;;;41.58;32.00;;;4.90;96.80;;;;;;5054984;28;20096;-67
2021/10/15 03:08:16;;;;;;;40.15;31.85;;;4.80;96.80;;;;;;5054969;28;20044;-66
2021/10/15 03:10:42;;;;;;;41.33;31.95;;;4.80;96.80;;;;;;5072994;28;20025;-65
2021/10/15 03:13:08;;;;;;;42.00;30.83;;;4.80;96.70;;;;;;5073122;28;20035;-66
2021/10/15 03:15:33;;;;;;;40.70;30.65;;;4.80;96.50;;;;;;5072738;28;20040;-66
2021/10/15 03:17:59;;;;;;;34.80;26.83;;;4.80;96.50;;;;;;5054225;28;20515;-66
2021/10/15 03:20:25;;;;;;;35.95;25.88;;;4.70;97.20;;;;;;5054594;28;20035;-66
2021/10/15 03:22:50;;;;;;;37.75;26.90;;;4.70;97.50;;;;;;5054863;28;20395;-66
2021/10/15 03:25:16;;;;;;;34.97;27.02;;;4.80;97.50;;;;;;5054525;28;20395;-67
2021/10/15 03:27:42;;;;;;;38.92;29.30;;;4.80;97.20;;;;;;5054826;28;20035;-66
2021/10/15 03:30:08;;;;;;;39.08;30.65;;;4.80;97.00;;;;;;5055023;28;20090;-66
2021/10/15 03:32:34;;;;;;;39.42;29.25;;;4.80;96.80;;;;;;5054437;28;20021;-67
2021/10/15 03:35:00;;;;;;;35.60;28.45;;;4.70;96.70;;;;;;5054828;28;20029;-64
2021/10/15 03:37:26;;;;;;;39.78;28.75;;;4.70;96.80;;;;;;5073128;28;20040;-66
2021/10/15 03:39:52;;;;;;;44.70;31.10;;;4.70;97.00;;;;;;5054131;28;20432;-67
2021/10/15 03:42:19;;;;;;;49.80;33.35;;;4.70;96.90;;;;;;5055157;28;20031;-67
2021/10/15 03:44:44;;;;;;;49.10;34.20;;;4.70;96.80;;;;;;5054072;28;20039;-65
2021/10/15 03:47:11;;;;;;;47.60;33.72;;;4.70;96.90;;;;;;5072681;28;20016;-66
2021/10/15 03:49:37;;;;;;;42.78;31.05;;;4.70;96.90;;;;;;5073386;28;20040;-66
2021/10/15 03:52:03;;;;;;;45.83;32.35;;;4.60;96.80;;;;;;5076571;28;20070;-65
2021/10/15 03:54:28;;;;;;;46.28;32.67;;;4.60;96.90;;;;;;5056750;28;20036;-67
2021/10/15 03:56:54;;;;;;;50.95;35.83;;;4.50;97.10;;;;;;5058636;28;20029;-66
2021/10/15 03:59:20;;;;;;;52.53;37.60;;;4.50;97.20;;;;;;5075728;28;20045;-72
2021/10/15 04:01:46;;;;;;;58.47;38.63;;;4.50;97.30;;;;;;5058634;28;20025;-75
2021/10/15 04:04:12;;;;;;;51.15;37.67;;;4.40;97.60;;;;;;5058490;28;20051;-67
2021/10/15 04:06:38;;;;;;;48.42;31.73;;;4.40;97.60;;;;;;5057929;28;20432;-66
2021/10/15 04:09:04;;;;;;;48.20;29.48;;;4.50;97.70;;;;;;5069916;28;20068;-67
2021/10/15 04:11:29;;;;;;;47.47;28.15;;;4.50;97.80;;;;;;5057620;28;20102;-65
2021/10/15 04:13:55;;;;;;;47.30;27.27;;;4.50;97.90;;;;;;5062922;28;20025;-65
2021/10/15 04:16:21;;;;;;;58.45;28.70;;;4.60;97.90;;;;;;5057932;28;20523;-66
2021/10/15 04:18:47;;;;;;;81.85;31.60;;;4.60;97.90;;;;;;5077866;28;20165;-65
2021/10/15 04:21:12;;;;;;;96.88;32.85;;;4.60;97.80;;;;;;5082813;28;20025;-66
2021/10/15 04:23:39;;;;;;;89.68;33.70;;;4.60;98.20;;;;;;5093908;28;20116;-65
2021/10/15 04:26:05;;;;;;;112.13;36.92;;;4.70;98.90;;;;;;5080863;28;20024;-66
2021/10/15 04:28:30;;;;;;;137.48;43.97;;;4.90;99.40;;;;;;5052039;28;20454;-65
2021/10/15 04:30:56;;;;;;;148.75;41.17;;;5.00;99.70;;;;;;5050929;28;20078;-67
2021/10/15 04:33:22;;;;;;;145.13;43.35;;;5.20;99.90;;;;;;5074732;28;20036;-64
2021/10/15 04:35:48;;;;;;;154.63;46.50;;;5.40;99.50;;;;;;5051624;28;20020;-66
2021/10/15 04:38:13;;;;;;;172.38;50.63;;;5.70;98.90;;;;;;5051847;28;20021;-66
2021/10/15 04:40:39;;;;;;;163.82;47.00;;;5.90;98.10;;;;;;5073151;28;20048;-67
2021/10/15 04:43:06;;;;;;;129.93;41.22;;;6.20;96.80;;;;;;5056873;28;20037;-66
2021/10/15 04:45:32;;;;;;;91.68;34.97;;;6.50;95.50;;;;;;5069883;28;20034;-68
2021/10/15 04:47:58;;;;;;;86.50;34.10;;;6.80;94.20;;;;;;5079020;28;20033;-68
2021/10/15 04:50:24;;;;;;;71.32;30.42;;;7.10;93.10;;;;;;5075472;28;20099;-74
2021/10/15 04:52:49;;;;;;;76.05;29.63;;;7.50;91.90;;;;;;5056718;28;20025;-79
2021/10/15 04:55:15;;;;;;;76.78;30.33;;;7.90;90.90;;;;;;5050303;28;20028;-76
2021/10/15 04:57:41;;;;;;;69.05;27.15;;;8.30;89.30;;;;;;5072392;28;20033;-68
2021/10/15 05:00:08;;;;;;;53.97;24.88;;;8.70;86.70;;;;;;5053925;28;20024;-71
2021/10/15 05:02:40;;;;;;;62.15;27.50;;;9.10;84.60;;;;;;5056038;28;20033;-79
2021/10/15 05:05:08;;;;;;;63.53;28.98;;;9.60;82.80;;;;;;5056950;28;20071;-76
2021/10/15 05:07:34;;;;;;;57.75;26.95;;;10.20;80.70;;;;;;5055099;28;20066;-77
2021/10/15 05:10:00;;;;;;;42.47;23.67;;;10.60;78.70;;;;;;5055502;28;20051;-79
2021/10/15 05:12:26;;;;;;;40.10;23.02;;;11.10;77.20;;;;;;5077746;28;20024;-78
2021/10/15 05:14:52;;;;;;;37.45;23.02;;;11.40;75.30;;;;;;5075188;28;20032;-80
2021/10/15 05:17:17;;;;;;;37.63;22.92;;;11.70;73.60;;;;;;5075123;28;20429;-77
2021/10/15 05:19:43;;;;;;;28.70;17.95;;;11.90;72.10;;;;;;5075421;28;20352;-80
2021/10/15 05:22:10;;;;;;;27.50;19.63;;;12.00;70.60;;;;;;5075166;28;20103;-79
2021/10/15 05:24:36;;;;;;;27.73;20.33;;;12.10;69.70;;;;;;5057437;28;20024;-76
2021/10/15 05:27:02;;;;;;;27.08;18.13;;;12.10;68.60;;;;;;5070348;28;20033;-78
2021/10/15 05:29:27;;;;;;;26.58;18.80;;;12.30;68.40;;;;;;5062751;28;20040;-77
2021/10/15 05:32:19;;;;;;;28.13;18.40;;;12.50;67.90;;;;;;5058391;28;20430;-77
2021/10/15 05:34:49;;;;;;;33.30;21.45;;;12.90;67.30;;;;;;5048153;28;20029;-76
2021/10/15 05:37:15;;;;;;;32.10;20.35;;;13.20;67.10;;;;;;5055339;28;20420;-76
2021/10/15 05:39:41;;;;;;;26.13;17.58;;;13.60;66.00;;;;;;5070379;28;20036;-77
2021/10/15 05:42:07;;;;;;;24.58;15.90;;;14.00;65.00;;;;;;5063300;28;20052;-74
2021/10/15 05:44:34;;;;;;;24.13;16.92;;;14.40;64.10;;;;;;5077066;28;20028;-76
2021/10/15 05:47:04;;;;;;;22.23;16.38;;;14.70;63.10;;;;;;5076973;28;20110;-77
2021/10/15 05:49:35;;;;;;;21.15;16.65;;;14.90;62.20;;;;;;5081948;28;20139;-77
2021/10/15 05:52:10;;;;;;;20.52;15.10;;;15.30;61.20;;;;;;5039953;28;20025;-76
2021/10/15 05:54:54;;;;;;;17.40;13.63;;;15.50;60.60;;;;;;5054851;28;20036;-76
2021/10/15 05:58:49;;;;;;;20.48;14.10;;;15.80;59.80;;;;;;5054162;28;20024;-78
2021/10/15 06:00:14;;;;;;;19.58;13.73;;;16.40;59.10;;;;;;5054728;28;20424;-75
2021/10/15 06:02:44;;;;;;;17.48;13.05;;;16.90;57.90;;;;;;5054284;28;20096;-81
2021/10/15 06:15:34;;;;;;;21.15;15.30;;;17.90;54.30;;;;;;5071892;28;20485;-76
2021/10/15 06:18:10;;;;;;;23.05;16.30;;;18.20;54.20;;;;;;5046545;28;20491;-83
2021/10/15 06:20:37;;;;;;;27.05;16.13;;;18.50;53.30;;;;;;5051378;28;20116;-74
2021/10/15 06:23:03;;;;;;;23.00;15.45;;;18.80;53.00;;;;;;5036482;28;20073;-78
2021/10/15 06:25:29;;;;;;;19.95;14.75;;;19.10;52.20;;;;;;5056919;28;20098;-82
2021/10/15 06:28:02;;;;;;;18.13;13.65;;;19.30;52.20;;;;;;5060551;28;20467;-80
2021/10/15 06:30:29;;;;;;;16.38;12.23;;;19.40;51.80;;;;;;5037395;28;20032;-83
2021/10/15 06:32:55;;;;;;;15.52;12.77;;;19.70;51.50;;;;;;5055924;28;20028;-79
2021/10/15 06:35:22;;;;;;;21.70;13.43;;;20.00;50.80;;;;;;5056141;28;20020;-79
2021/10/15 06:37:48;;;;;;;20.55;13.27;;;20.30;50.30;;;;;;5056169;28;20372;-80
2021/10/15 06:40:15;;;;;;;22.67;13.43;;;20.50;49.40;;;;;;5056069;28;20471;-79
2021/10/15 06:42:40;;;;;;;17.98;13.63;;;20.60;48.80;;;;;;5049026;28;20467;-78
2021/10/15 06:45:07;;;;;;;21.33;15.68;;;20.40;48.40;;;;;;5073722;28;20077;-78
2021/10/15 06:47:33;;;;;;;19.58;15.55;;;20.40;48.50;;;;;;5055826;28;20063;-79
2021/10/15 06:49:58;;;;;;;23.98;16.27;;;20.40;48.60;;;;;;5055896;28;20067;-80
2021/10/15 06:52:24;;;;;;;28.73;17.60;;;20.30;48.60;;;;;;5056031;28;20017;-85
2021/10/15 06:54:50;;;;;;;34.72;21.50;;;20.40;48.60;;;;;;5055634;28;20447;-80
2021/10/15 06:57:16;;;;;;;43.40;25.45;;;20.50;48.40;;;;;;5056237;28;20046;-82
2021/10/15 06:59:43;;;;;;;54.03;30.50;;;20.60;48.50;;;;;;5055885;28;20032;-80
2021/10/15 07:02:09;;;;;;;63.55;38.20;;;20.90;48.30;;;;;;5055540;28;20463;-83
2021/10/15 07:04:35;;;;;;;52.83;33.95;;;21.30;47.70;;;;;;5065372;28;20134;-80
2021/10/15 07:07:01;;;;;;;39.85;25.05;;;21.60;46.70;;;;;;5074695;28;20127;-78
2021/10/15 07:09:27;;;;;;;34.00;22.58;;;21.50;46.40;;;;;;5086360;28;20048;-76
2021/10/15 07:11:53;;;;;;;36.50;26.02;;;21.30;46.40;;;;;;5075572;28;20028;-79
2021/10/15 07:14:19;;;;;;;29.52;19.75;;;21.50;46.70;;;;;;5062065;28;20024;-77
2021/10/15 07:16:45;;;;;;;34.03;19.73;;;21.60;46.60;;;;;;5073458;28;20080;-79
2021/10/15 07:19:11;;;;;;;41.72;24.85;;;21.50;46.40;;;;;;5054254;28;20041;-75
2021/10/15 07:21:37;;;;;;;77.32;40.88;;;21.60;47.00;;;;;;5053548;28;20429;-83
2021/10/15 07:24:03;;;;;;;78.07;40.67;;;22.10;46.70;;;;;;5035707;28;20071;-80
2021/10/15 07:26:30;;;;;;;64.65;36.25;;;22.60;46.00;;;;;;5039833;28;20021;-80
2021/10/15 07:28:55;;;;;;;45.67;27.33;;;22.90;45.60;;;;;;5039534;28;20036;-78
2021/10/15 07:31:21;;;;;;;40.95;23.92;;;23.00;44.80;;;;;;5039319;28;20031;-81
2021/10/15 07:33:48;;;;;;;34.30;22.60;;;23.00;44.70;;;;;;5053125;28;20074;-76
2021/10/15 07:36:15;;;;;;;35.40;22.27;;;23.10;44.60;;;;;;5059419;28;20036;-79
2021/10/15 07:38:41;;;;;;;24.02;16.23;;;23.50;44.40;;;;;;5059221;28;20471;-76
2021/10/15 07:41:07;;;;;;;17.95;12.23;;;23.90;43.90;;;;;;5059363;28;20032;-75
2021/10/15 07:43:34;;;;;;;18.63;13.00;;;24.10;43.50;;;;;;5059079;28;20036;-76
2021/10/15 07:46:01;;;;;;;16.80;12.50;;;24.40;42.60;;;;;;5059598;28;20028;-81
2021/10/15 07:48:27;;;;;;;15.85;12.73;;;24.50;42.20;;;;;;5059162;28;20024;-80
2021/10/15 07:50:53;;;;;;;16.25;12.52;;;24.60;42.40;;;;;;5059113;28;20398;-80
2021/10/15 07:53:18;;;;;;;20.23;13.65;;;25.00;41.70;;;;;;5084697;28;20024;-80
2021/10/15 07:55:44;;;;;;;46.50;21.20;;;25.10;41.40;;;;;;5097238;28;20461;-82
2021/10/15 07:58:10;;;;;;;70.28;31.58;;;25.30;40.70;;;;;;5078906;28;20039;-79
2021/10/15 08:00:38;;;;;;;96.03;43.15;;;25.20;40.00;;;;;;5097199;28;20056;-81
2021/10/15 08:03:05;;;;;;;80.15;32.67;;;25.10;39.70;;;;;;5078808;28;20024;-78
2021/10/15 08:05:30;;;;;;;84.90;41.25;;;24.80;40.00;;;;;;5097384;28;20051;-78
2021/10/15 08:07:56;;;;;;;64.03;33.83;;;24.70;40.10;;;;;;5078699;28;20036;-79
2021/10/15 08:10:22;;;;;;;48.80;26.20;;;24.60;39.90;;;;;;5096880;28;20385;-79
2021/10/15 08:12:48;;;;;;;55.22;31.20;;;24.50;40.20;;;;;;5077750;28;20352;-78
2021/10/15 08:15:16;;;;;;;41.70;23.08;;;24.30;40.10;;;;;;5097720;28;20035;-80
2021/10/15 08:17:43;;;;;;;37.20;19.80;;;24.30;40.10;;;;;;5096981;28;20038;-76
2021/10/15 08:20:10;;;;;;;49.65;25.75;;;24.50;40.10;;;;;;5069202;28;20021;-79
2021/10/15 08:22:36;;;;;;;41.92;21.77;;;24.60;39.70;;;;;;5058517;28;20028;-76
2021/10/15 08:25:02;;;;;;;39.92;21.48;;;24.60;39.40;;;;;;5058648;28;20025;-83
2021/10/15 08:27:28;;;;;;;22.90;13.95;;;24.70;39.20;;;;;;5076311;28;20035;-76
2021/10/15 08:29:53;;;;;;;30.60;16.92;;;24.50;38.90;;;;;;5058376;28;20033;-76
2021/10/15 08:32:19;;;;;;;45.78;20.20;;;24.60;38.90;;;;;;5058404;28;20033;-74
2021/10/15 08:34:45;;;;;;;41.85;20.27;;;24.90;38.90;;;;;;5060317;28;20041;-74
2021/10/15 08:37:10;;;;;;;48.70;24.77;;;24.90;37.80;;;;;;5095630;28;20094;-75
2021/10/15 08:39:36;;;;;;;51.25;28.58;;;24.90;37.40;;;;;;5096365;28;20451;-73
2021/10/15 08:42:02;;;;;;;40.58;20.25;;;25.10;37.50;;;;;;5077958;28;20028;-76
2021/10/15 08:44:35;;;;;;;41.10;20.33;;;25.40;37.00;;;;;;5078264;28;20024;-75
2021/10/15 08:47:01;;;;;;;41.75;20.42;;;25.90;37.20;;;;;;5078667;28;20131;-77
2021/10/15 08:49:27;;;;;;;65.13;22.95;;;26.50;36.60;;;;;;5095574;28;20522;-79
2021/10/15 08:51:53;;;;;;;70.07;24.27;;;26.80;36.00;;;;;;5077899;28;20071;-79
2021/10/15 08:54:19;;;;;;;65.15;23.42;;;26.80;35.30;;;;;;5077766;28;20055;-78
2021/10/15 08:56:45;;;;;;;60.13;20.75;;;26.40;35.10;;;;;;5075127;28;20063;-75
2021/10/15 08:59:13;;;;;;;54.40;23.92;;;26.20;35.60;;;;;;5045878;28;20037;-80
2021/10/15 09:01:45;;;;;;;35.15;18.85;;;26.40;35.60;;;;;;5041719;28;20375;-76
2021/10/15 09:04:16;;;;;;;45.70;22.20;;;26.50;35.20;;;;;;5073619;28;20531;-75
2021/10/15 09:06:43;;;;;;;51.40;22.02;;;26.70;35.30;;;;;;5070446;28;20029;-75
2021/10/15 09:09:09;;;;;;;31.98;16.48;;;27.00;34.80;;;;;;5057585;28;20466;-75
2021/10/15 09:11:39;;;;;;;29.23;14.52;;;27.20;34.80;;;;;;5075109;28;20083;-75
2021/10/15 09:14:12;;;;;;;41.95;19.55;;;27.50;35.20;;;;;;5056922;28;20029;-76
2021/10/15 09:17:11;;;;;;;32.08;12.93;;;27.60;34.80;;;;;;5057457;28;20028;-75
2021/10/15 09:19:48;;;;;;;16.77;8.40;;;27.70;34.30;;;;;;5080266;28;20074;-76
2021/10/15 09:22:15;;;;;;;24.17;12.73;;;27.80;33.10;;;;;;5077657;28;20021;-76
2021/10/15 09:24:47;;;;;;;45.50;21.63;;;27.80;33.00;;;;;;5075417;28;20020;-75
2021/10/15 09:27:38;;;;;;;62.03;26.52;;;27.70;32.60;;;;;;5077639;28;20117;-75
2021/10/15 09:30:21;;;;;;;19.40;9.75;;;27.40;32.60;;;;;;5077417;28;20036;-74
2021/10/15 09:32:59;;;;;;;15.13;7.50;;;27.30;32.70;;;;;;5089381;28;20028;-75
2021/10/15 09:35:30;;;;;;;29.30;9.63;;;27.50;32.90;;;;;;5075070;28;20033;-75
2021/10/15 09:38:01;;;;;;;25.58;10.65;;;27.90;32.70;;;;;;5075031;28;20095;-74
2021/10/15 09:40:31;;;;;;;34.22;13.00;;;28.20;32.50;;;;;;5056965;28;20031;-76
2021/10/15 09:42:59;;;;;;;34.38;12.73;;;28.50;32.00;;;;;;5057144;28;20032;-76
2021/10/15 09:45:30;;;;;;;22.92;9.50;;;28.70;31.60;;;;;;5075489;28;20028;-75
2021/10/15 09:48:01;;;;;;;29.08;13.40;;;28.90;31.20;;;;;;5056985;28;20036;-75
2021/10/15 09:50:29;;;;;;;24.23;10.82;;;29.00;31.40;;;;;;5056969;28;20091;-76
2021/10/15 09:53:00;;;;;;;14.93;7.00;;;29.00;31.00;;;;;;5074574;28;20024;-76
2021/10/15 09:55:31;;;;;;;19.73;9.82;;;29.00;30.90;;;;;;5049191;28;20032;-75
2021/10/15 09:58:17;;;;;;;25.48;11.40;;;29.10;30.50;;;;;;5036528;28;20086;-76
2021/10/15 10:00:44;;;;;;;22.48;11.52;;;28.30;30.30;;;;;;5036174;28;20025;-75
2021/10/15 10:03:10;;;;;;;22.63;11.95;;;27.50;30.90;;;;;;5053794;28;20070;-76
2021/10/15 10:05:36;;;;;;;25.80;11.50;;;27.10;31.60;;;;;;5037036;28;20116;-76
2021/10/15 10:08:02;;;;;;;10.65;6.35;;;27.00;32.50;;;;;;5058868;28;20456;-75
2021/10/15 10:10:35;;;;;;;22.63;10.40;;;26.90;32.70;;;;;;5076530;28;20032;-75
2021/10/15 10:13:01;;;;;;;13.07;8.07;;;27.10;32.40;;;;;;5093648;28;20052;-76
2021/10/15 10:15:30;;;;;;;12.60;7.88;;;27.20;32.30;;;;;;5076313;28;20032;-72
2021/10/15 10:18:25;;;;;;;12.25;7.68;;;27.20;32.70;;;;;;5076082;28;20036;-76
2021/10/15 10:20:55;;;;;;;17.17;9.07;;;27.20;33.00;;;;;;5074254;28;20057;-76
2021/10/15 10:23:31;;;;;;;17.58;9.40;;;27.10;31.50;;;;;;5056428;28;20054;-76
2021/10/15 10:26:03;;;;;;;16.73;8.50;;;27.00;31.50;;;;;;5056419;28;20024;-78
2021/10/15 10:28:30;;;;;;;21.42;9.40;;;26.80;32.10;;;;;;5074252;28;20025;-75
2021/10/15 10:31:02;;;;;;;19.95;8.48;;;26.80;32.20;;;;;;5056699;28;20029;-76
2021/10/15 10:33:29;;;;;;;19.67;8.48;;;27.00;32.20;;;;;;5074563;28;20040;-75
2021/10/15 10:36:12;;;;;;;33.72;10.77;;;27.00;32.00;;;;;;5074082;28;20434;-75
2021/10/15 10:38:39;;;;;;;34.75;11.95;;;26.60;31.70;;;;;;5059035;28;20051;-74
2021/10/15 10:41:05;;;;;;;31.27;12.32;;;26.50;31.90;;;;;;5076235;28;20421;-75
2021/10/15 10:43:42;;;;;;;20.35;9.90;;;26.30;32.20;;;;;;5076124;28;20062;-75
2021/10/15 10:46:08;;;;;;;14.40;7.25;;;26.40;32.30;;;;;;5076478;28;20020;-75
2021/10/15 10:48:54;;;;;;;15.75;7.30;;;26.40;32.20;;;;;;5094164;28;20050;-74
2021/10/15 10:51:21;;;;;;;13.65;6.80;;;26.10;31.50;;;;;;5055286;28;20040;-74
2021/10/15 10:54:03;;;;;;;18.25;7.53;;;25.60;31.80;;;;;;5055865;28;20421;-75
2021/10/15 10:56:49;;;;;;;19.92;9.07;;;25.60;32.20;;;;;;5054053;28;20437;-77
2021/10/15 10:59:18;;;;;;;15.52;7.53;;;25.80;32.20;;;;;;5051059;28;20064;-75
2021/10/15 11:01:54;;;;;;;8.50;4.60;;;25.80;32.00;;;;;;5073455;28;20460;-74
2021/10/15 11:04:51;;;;;;;3.90;2.70;;;25.80;31.30;;;;;;5038919;28;20045;-75
2021/10/15 11:07:16;;;;;;;9.07;4.82;;;25.50;30.40;;;;;;5060696;28;20024;-79
2021/10/15 11:09:47;;;;;;;5.85;3.33;;;25.10;30.30;;;;;;5055227;28;20047;-75
2021/10/15 11:12:19;;;;;;;24.23;12.00;;;24.70;30.40;;;;;;5055718;28;20024;-75
2021/10/15 11:14:59;;;;;;;18.73;8.10;;;24.70;30.90;;;;;;5070922;28;20024;-76
2021/10/15 11:17:41;;;;;;;8.82;4.07;;;24.70;31.20;;;;;;5035616;28;20032;-77
2021/10/15 11:20:25;;;;;;;11.30;5.97;;;24.80;31.20;;;;;;5035236;28;20078;-74
2021/10/15 11:22:51;;;;;;;8.57;4.72;;;24.80;30.80;;;;;;5035473;28;20025;-72
2021/10/15 11:25:17;;;;;;;12.05;5.78;;;24.60;30.60;;;;;;5036072;28;20032;-74
2021/10/15 11:27:57;;;;;;;11.60;6.75;;;24.30;30.60;;;;;;5035688;28;20045;-73
2021/10/15 11:30:26;;;;;;;17.40;8.95;;;24.00;31.20;;;;;;5041961;28;20075;-76
2021/10/15 11:32:52;;;;;;;29.85;11.13;;;23.60;31.70;;;;;;5054991;28;20479;-76
2021/10/15 11:35:18;;;;;;;45.35;11.35;;;23.20;32.20;;;;;;5054604;28;20382;-74
2021/10/15 11:38:06;;;;;;;18.23;5.85;;;23.20;33.30;;;;;;5055434;28;20024;-74
2021/10/15 11:40:41;;;;;;;14.88;4.30;;;23.20;33.40;;;;;;5055613;28;20020;-75
2021/10/15 11:43:12;;;;;;;;;;;23.50;33.20;;;;;;5055920;28;20125;-75
2021/10/15 11:45:53;;;;;;;16.30;8.38;;;23.60;33.40;;;;;;5073443;28;19911;-75
2021/10/15 11:48:20;;;;;;;22.95;10.73;;;23.90;33.20;;;;;;5055728;28;20123;-75
2021/10/15 11:50:53;;;;;;;19.30;9.43;;;24.10;32.70;;;;;;5055366;28;20035;-75
2021/10/15 11:53:28;;;;;;;22.30;7.40;;;24.00;32.60;;;;;;5070386;28;20028;-75
2021/10/15 11:55:57;;;;;;;16.48;5.53;;;24.00;32.90;;;;;;5093509;28;20058;-75
2021/10/15 11:58:27;;;;;;;16.92;4.90;;;24.00;33.10;;;;;;5075314;28;20036;-75
2021/10/15 12:01:11;;;;;;;11.18;4.30;;;24.00;33.40;;;;;;5083708;28;20024;-75
2021/10/15 12:03:43;;;;;;;20.15;5.00;;;23.90;33.10;;;;;;5073258;28;20436;-75
2021/10/15 12:06:25;;;;;;;16.30;6.25;;;23.70;33.60;;;;;;5055132;28;20424;-75
2021/10/15 12:09:11;;;;;;;5.95;3.70;;;23.40;34.90;;;;;;5072944;28;20463;-75
2021/10/15 12:11:40;;;;;;;6.45;3.85;;;23.00;34.60;;;;;;5058095;28;20119;-74
2021/10/15 12:14:14;;;;;;;6.35;4.25;;;22.80;34.50;;;;;;5081516;28;20024;-74
2021/10/15 12:16:47;;;;;;;9.73;6.43;;;22.30;35.30;;;;;;5079140;28;20086;-74
2021/10/15 12:19:22;;;;;;;10.27;6.30;;;21.80;35.70;;;;;;5078665;28;20115;-75
2021/10/15 12:21:49;;;;;;;14.20;7.53;;;21.50;36.90;;;;;;5096781;28;20028;-75
2021/10/15 12:24:24;;;;;;;8.85;4.80;;;21.00;39.70;;;;;;5078894;28;20036;-75
2021/10/15 12:27:08;;;;;;;7.28;4.75;;;20.40;39.50;;;;;;5078830;28;20435;-75
2021/10/15 12:29:52;;;;;;;11.13;8.07;;;20.00;39.30;;;;;;5078505;28;20402;-75
2021/10/15 12:32:36;;;;;;;8.25;4.65;;;19.60;41.70;;;;;;5070686;28;20484;-75
2021/10/15 12:35:14;;;;;;;11.70;6.97;;;19.30;41.00;;;;;;5078598;28;20126;-74
2021/10/15 12:37:49;;;;;;;7.40;4.63;;;18.80;40.80;;;;;;5078940;28;20028;-74
2021/10/15 12:40:27;;;;;;;13.13;6.55;;;18.50;41.10;;;;;;5078488;28;20398;-75
2021/10/15 12:42:55;;;;;;;25.23;12.35;;;18.10;41.30;;;;;;5097035;28;20447;-75
2021/10/15 12:45:27;;;;;;;18.63;8.18;;;17.80;41.90;;;;;;5096544;28;20058;-75
2021/10/15 12:48:00;;;;;;;13.30;7.55;;;17.70;42.50;;;;;;5096420;28;20032;-75
2021/10/15 12:50:28;;;;;;;10.65;5.38;;;17.60;43.20;;;;;;5078357;28;20035;-74